sensor_id;sensor_type;location;lat;lon;timestamp;P1;durP1;ratioP1;P2;durP2;ratioP2
17422;SDS011;8829;47.932;7.810;2023-05-20T00:01:33;5.77;;;3.77;;
17422;SDS011;8829;47.932;7.810;2023-05-20T00:04:00;3.30;;;3.10;;
17422;SDS011;8829;47.932;7.810;2023-05-20T00:06:26;3.73;;;3.17;;
17422;SDS011;8829;47.932;7.810;2023-05-20T00:08:54;3.10;;;2.90;;
17422;SDS011;8829;47.932;7.810;2023-05-20T00:11:23;3.40;;;3.07;;
17422;SDS011;8829;47.932;7.810;2023-05-20T00:13:50;4.37;;;3.60;;
17422;SDS011;8829;47.932;7.810;2023-05-20T00:16:17;3.10;;;2.90;;
17422;SDS011;8829;47.932;7.810;2023-05-20T00:18:43;3.67;;;3.07;;
17422;SDS011;8829;47.932;7.810;2023-05-20T00:21:10;3.23;;;2.90;;
17422;SDS011;8829;47.932;7.810;2023-05-20T00:23:36;3.70;;;3.13;;
17422;SDS011;8829;47.932;7.810;2023-05-20T00:26:05;3.40;;;2.93;;
17422;SDS011;8829;47.932;7.810;2023-05-20T00:28:32;6.67;;;3.30;;
17422;SDS011;8829;47.932;7.810;2023-05-20T00:30:58;4.87;;;3.13;;
17422;SDS011;8829;47.932;7.810;2023-05-20T00:33:25;4.57;;;3.27;;
17422;SDS011;8829;47.932;7.810;2023-05-20T00:35:52;3.87;;;2.80;;
17422;SDS011;8829;47.932;7.810;2023-05-20T00:38:18;3.60;;;2.60;;
17422;SDS011;8829;47.932;7.810;2023-05-20T00:40:45;4.47;;;3.30;;
17422;SDS011;8829;47.932;7.810;2023-05-20T00:43:13;5.00;;;3.13;;
17422;SDS011;8829;47.932;7.810;2023-05-20T00:45:40;3.33;;;3.00;;
17422;SDS011;8829;47.932;7.810;2023-05-20T00:48:07;4.17;;;2.90;;
17422;SDS011;8829;47.932;7.810;2023-05-20T00:50:34;4.67;;;3.37;;
17422;SDS011;8829;47.932;7.810;2023-05-20T00:53:00;3.90;;;2.97;;
17422;SDS011;8829;47.932;7.810;2023-05-20T00:55:28;3.77;;;3.07;;
17422;SDS011;8829;47.932;7.810;2023-05-20T00:57:55;5.30;;;2.97;;
17422;SDS011;8829;47.932;7.810;2023-05-20T01:00:23;3.03;;;2.83;;
17422;SDS011;8829;47.932;7.810;2023-05-20T01:02:50;4.10;;;2.80;;
17422;SDS011;8829;47.932;7.810;2023-05-20T01:05:17;4.03;;;2.83;;
17422;SDS011;8829;47.932;7.810;2023-05-20T01:07:43;3.80;;;2.47;;
17422;SDS011;8829;47.932;7.810;2023-05-20T01:10:10;5.17;;;3.10;;
17422;SDS011;8829;47.932;7.810;2023-05-20T01:12:38;4.23;;;2.80;;
17422;SDS011;8829;47.932;7.810;2023-05-20T01:15:09;5.20;;;2.90;;
17422;SDS011;8829;47.932;7.810;2023-05-20T01:17:39;4.10;;;2.70;;
17422;SDS011;8829;47.932;7.810;2023-05-20T01:20:09;2.80;;;2.60;;
17422;SDS011;8829;47.932;7.810;2023-05-20T01:22:39;3.20;;;2.90;;
17422;SDS011;8829;47.932;7.810;2023-05-20T01:25:12;3.83;;;2.20;;
17422;SDS011;8829;47.932;7.810;2023-05-20T01:27:39;5.63;;;3.10;;
17422;SDS011;8829;47.932;7.810;2023-05-20T01:30:06;3.03;;;2.83;;
17422;SDS011;8829;47.932;7.810;2023-05-20T01:32:35;5.57;;;3.27;;
17422;SDS011;8829;47.932;7.810;2023-05-20T01:35:05;7.93;;;2.83;;
17422;SDS011;8829;47.932;7.810;2023-05-20T01:37:33;6.30;;;3.07;;
17422;SDS011;8829;47.932;7.810;2023-05-20T01:40:04;2.60;;;2.40;;
17422;SDS011;8829;47.932;7.810;2023-05-20T01:42:33;5.37;;;2.70;;
17422;SDS011;8829;47.932;7.810;2023-05-20T01:45:01;4.00;;;2.93;;
17422;SDS011;8829;47.932;7.810;2023-05-20T01:47:29;2.53;;;2.10;;
17422;SDS011;8829;47.932;7.810;2023-05-20T01:49:56;3.90;;;2.40;;
17422;SDS011;8829;47.932;7.810;2023-05-20T01:52:22;5.63;;;3.07;;
17422;SDS011;8829;47.932;7.810;2023-05-20T01:54:49;3.20;;;2.97;;
17422;SDS011;8829;47.932;7.810;2023-05-20T01:57:17;4.07;;;3.50;;
17422;SDS011;8829;47.932;7.810;2023-05-20T01:59:44;3.33;;;3.03;;
17422;SDS011;8829;47.932;7.810;2023-05-20T02:02:11;3.40;;;3.00;;
17422;SDS011;8829;47.932;7.810;2023-05-20T02:04:38;4.57;;;3.20;;
17422;SDS011;8829;47.932;7.810;2023-05-20T02:07:06;3.70;;;3.37;;
17422;SDS011;8829;47.932;7.810;2023-05-20T02:09:33;7.00;;;3.37;;
17422;SDS011;8829;47.932;7.810;2023-05-20T02:11:59;3.30;;;2.90;;
17422;SDS011;8829;47.932;7.810;2023-05-20T02:14:27;3.50;;;3.00;;
17422;SDS011;8829;47.932;7.810;2023-05-20T02:16:54;4.47;;;3.30;;
17422;SDS011;8829;47.932;7.810;2023-05-20T02:19:21;6.07;;;2.80;;
17422;SDS011;8829;47.932;7.810;2023-05-20T02:21:48;5.47;;;3.40;;
17422;SDS011;8829;47.932;7.810;2023-05-20T02:24:15;3.07;;;2.77;;
17422;SDS011;8829;47.932;7.810;2023-05-20T02:26:42;4.53;;;3.20;;
17422;SDS011;8829;47.932;7.810;2023-05-20T02:29:11;5.73;;;2.90;;
17422;SDS011;8829;47.932;7.810;2023-05-20T02:31:39;4.17;;;2.47;;
17422;SDS011;8829;47.932;7.810;2023-05-20T02:34:05;5.03;;;2.93;;
17422;SDS011;8829;47.932;7.810;2023-05-20T02:36:32;5.13;;;2.63;;
17422;SDS011;8829;47.932;7.810;2023-05-20T02:38:59;4.97;;;2.87;;
17422;SDS011;8829;47.932;7.810;2023-05-20T02:41:26;2.60;;;2.40;;
17422;SDS011;8829;47.932;7.810;2023-05-20T02:43:53;2.40;;;2.20;;
17422;SDS011;8829;47.932;7.810;2023-05-20T02:46:21;2.90;;;2.60;;
17422;SDS011;8829;47.932;7.810;2023-05-20T02:48:49;4.23;;;2.80;;
17422;SDS011;8829;47.932;7.810;2023-05-20T02:51:16;4.40;;;2.90;;
17422;SDS011;8829;47.932;7.810;2023-05-20T02:53:42;2.60;;;2.40;;
17422;SDS011;8829;47.932;7.810;2023-05-20T02:56:09;6.33;;;3.23;;
17422;SDS011;8829;47.932;7.810;2023-05-20T02:58:37;2.97;;;2.47;;
17422;SDS011;8829;47.932;7.810;2023-05-20T03:01:04;5.73;;;2.80;;
17422;SDS011;8829;47.932;7.810;2023-05-20T03:03:31;4.40;;;3.53;;
17422;SDS011;8829;47.932;7.810;2023-05-20T03:05:59;3.23;;;2.93;;
17422;SDS011;8829;47.932;7.810;2023-05-20T03:08:26;4.57;;;2.90;;
17422;SDS011;8829;47.932;7.810;2023-05-20T03:10:53;3.20;;;2.90;;
17422;SDS011;8829;47.932;7.810;2023-05-20T03:13:20;3.20;;;2.70;;
17422;SDS011;8829;47.932;7.810;2023-05-20T03:15:47;2.97;;;2.50;;
17422;SDS011;8829;47.932;7.810;2023-05-20T03:18:13;4.23;;;3.00;;
17422;SDS011;8829;47.932;7.810;2023-05-20T03:20:41;6.60;;;3.17;;
17422;SDS011;8829;47.932;7.810;2023-05-20T03:23:09;3.13;;;2.83;;
17422;SDS011;8829;47.932;7.810;2023-05-20T03:25:36;4.87;;;2.67;;
17422;SDS011;8829;47.932;7.810;2023-05-20T03:28:04;5.50;;;2.83;;
17422;SDS011;8829;47.932;7.810;2023-05-20T03:30:31;2.63;;;2.20;;
17422;SDS011;8829;47.932;7.810;2023-05-20T03:32:57;3.20;;;2.90;;
17422;SDS011;8829;47.932;7.810;2023-05-20T03:35:24;2.67;;;2.47;;
17422;SDS011;8829;47.932;7.810;2023-05-20T03:37:51;3.07;;;2.30;;
17422;SDS011;8829;47.932;7.810;2023-05-20T03:40:19;4.70;;;2.70;;
17422;SDS011;8829;47.932;7.810;2023-05-20T03:42:46;2.63;;;2.43;;
17422;SDS011;8829;47.932;7.810;2023-05-20T03:45:14;2.70;;;2.50;;
17422;SDS011;8829;47.932;7.810;2023-05-20T03:47:41;2.93;;;2.50;;
17422;SDS011;8829;47.932;7.810;2023-05-20T03:50:08;2.77;;;2.50;;
17422;SDS011;8829;47.932;7.810;2023-05-20T03:52:35;4.70;;;2.60;;
17422;SDS011;8829;47.932;7.810;2023-05-20T03:55:02;2.83;;;2.63;;
17422;SDS011;8829;47.932;7.810;2023-05-20T03:57:31;3.20;;;2.93;;
17422;SDS011;8829;47.932;7.810;2023-05-20T03:59:58;5.70;;;3.37;;
17422;SDS011;8829;47.932;7.810;2023-05-20T04:02:26;2.70;;;2.20;;
17422;SDS011;8829;47.932;7.810;2023-05-20T04:04:52;5.17;;;2.77;;
17422;SDS011;8829;47.932;7.810;2023-05-20T04:07:21;3.40;;;2.83;;
17422;SDS011;8829;47.932;7.810;2023-05-20T04:09:48;4.20;;;2.37;;
17422;SDS011;8829;47.932;7.810;2023-05-20T04:12:16;4.03;;;2.50;;
17422;SDS011;8829;47.932;7.810;2023-05-20T04:14:46;3.47;;;2.50;;
17422;SDS011;8829;47.932;7.810;2023-05-20T04:17:14;4.27;;;2.70;;
17422;SDS011;8829;47.932;7.810;2023-05-20T04:19:40;3.50;;;2.13;;
17422;SDS011;8829;47.932;7.810;2023-05-20T04:22:10;4.53;;;2.70;;
17422;SDS011;8829;47.932;7.810;2023-05-20T04:24:36;3.40;;;2.43;;
17422;SDS011;8829;47.932;7.810;2023-05-20T04:27:03;3.40;;;2.70;;
17422;SDS011;8829;47.932;7.810;2023-05-20T04:29:31;2.57;;;2.37;;
17422;SDS011;8829;47.932;7.810;2023-05-20T04:32:00;2.87;;;2.50;;
17422;SDS011;8829;47.932;7.810;2023-05-20T04:34:27;5.10;;;2.83;;
17422;SDS011;8829;47.932;7.810;2023-05-20T04:36:54;5.67;;;3.23;;
17422;SDS011;8829;47.932;7.810;2023-05-20T04:39:21;4.17;;;2.50;;
17422;SDS011;8829;47.932;7.810;2023-05-20T04:41:48;2.70;;;2.50;;
17422;SDS011;8829;47.932;7.810;2023-05-20T04:44:18;3.20;;;2.77;;
17422;SDS011;8829;47.932;7.810;2023-05-20T04:46:46;3.10;;;2.90;;
17422;SDS011;8829;47.932;7.810;2023-05-20T04:49:14;7.10;;;2.43;;
17422;SDS011;8829;47.932;7.810;2023-05-20T04:51:41;3.33;;;2.60;;
17422;SDS011;8829;47.932;7.810;2023-05-20T04:54:07;2.70;;;2.50;;
17422;SDS011;8829;47.932;7.810;2023-05-20T04:56:34;5.00;;;2.60;;
17422;SDS011;8829;47.932;7.810;2023-05-20T04:59:01;4.07;;;2.73;;
17422;SDS011;8829;47.932;7.810;2023-05-20T05:01:28;3.77;;;2.47;;
17422;SDS011;8829;47.932;7.810;2023-05-20T05:03:54;2.70;;;2.50;;
17422;SDS011;8829;47.932;7.810;2023-05-20T05:06:22;3.60;;;2.30;;
17422;SDS011;8829;47.932;7.810;2023-05-20T05:08:49;2.53;;;2.37;;
17422;SDS011;8829;47.932;7.810;2023-05-20T05:11:16;3.33;;;2.83;;
17422;SDS011;8829;47.932;7.810;2023-05-20T05:13:42;3.30;;;2.90;;
17422;SDS011;8829;47.932;7.810;2023-05-20T05:16:09;3.20;;;3.00;;
17422;SDS011;8829;47.932;7.810;2023-05-20T05:18:36;6.13;;;2.77;;
17422;SDS011;8829;47.932;7.810;2023-05-20T05:21:03;3.33;;;2.63;;
17422;SDS011;8829;47.932;7.810;2023-05-20T05:23:32;4.43;;;3.23;;
17422;SDS011;8829;47.932;7.810;2023-05-20T05:25:59;4.63;;;3.40;;
17422;SDS011;8829;47.932;7.810;2023-05-20T05:28:25;3.93;;;3.40;;
17422;SDS011;8829;47.932;7.810;2023-05-20T05:30:54;3.33;;;3.13;;
17422;SDS011;8829;47.932;7.810;2023-05-20T05:33:21;3.43;;;3.20;;
17422;SDS011;8829;47.932;7.810;2023-05-20T05:35:48;3.93;;;3.63;;
17422;SDS011;8829;47.932;7.810;2023-05-20T05:38:15;5.30;;;4.07;;
17422;SDS011;8829;47.932;7.810;2023-05-20T05:40:44;5.10;;;4.07;;
17422;SDS011;8829;47.932;7.810;2023-05-20T05:43:10;4.00;;;3.70;;
17422;SDS011;8829;47.932;7.810;2023-05-20T05:45:37;4.57;;;3.80;;
17422;SDS011;8829;47.932;7.810;2023-05-20T05:48:06;6.17;;;3.77;;
17422;SDS011;8829;47.932;7.810;2023-05-20T05:50:32;4.77;;;3.73;;
17422;SDS011;8829;47.932;7.810;2023-05-20T05:52:59;4.80;;;4.10;;
17422;SDS011;8829;47.932;7.810;2023-05-20T05:55:26;4.47;;;3.70;;
17422;SDS011;8829;47.932;7.810;2023-05-20T05:57:55;4.70;;;3.80;;
17422;SDS011;8829;47.932;7.810;2023-05-20T06:00:22;5.67;;;3.83;;
17422;SDS011;8829;47.932;7.810;2023-05-20T06:02:49;7.13;;;5.23;;
17422;SDS011;8829;47.932;7.810;2023-05-20T06:05:16;6.87;;;4.50;;
17422;SDS011;8829;47.932;7.810;2023-05-20T06:07:42;12.77;;;7.77;;
17422;SDS011;8829;47.932;7.810;2023-05-20T06:10:09;13.47;;;8.03;;
17422;SDS011;8829;47.932;7.810;2023-05-20T06:12:36;5.50;;;4.50;;
17422;SDS011;8829;47.932;7.810;2023-05-20T06:15:05;9.97;;;5.37;;
17422;SDS011;8829;47.932;7.810;2023-05-20T06:17:32;7.20;;;4.93;;
17422;SDS011;8829;47.932;7.810;2023-05-20T06:19:59;14.03;;;5.13;;
17422;SDS011;8829;47.932;7.810;2023-05-20T06:22:25;5.90;;;4.27;;
17422;SDS011;8829;47.932;7.810;2023-05-20T06:24:52;5.57;;;3.83;;
17422;SDS011;8829;47.932;7.810;2023-05-20T06:27:20;6.57;;;4.60;;
17422;SDS011;8829;47.932;7.810;2023-05-20T06:29:47;4.27;;;3.87;;
17422;SDS011;8829;47.932;7.810;2023-05-20T06:32:15;4.53;;;4.13;;
17422;SDS011;8829;47.932;7.810;2023-05-20T06:34:42;5.37;;;4.50;;
17422;SDS011;8829;47.932;7.810;2023-05-20T06:37:09;6.43;;;4.53;;
17422;SDS011;8829;47.932;7.810;2023-05-20T06:39:36;4.50;;;4.10;;
17422;SDS011;8829;47.932;7.810;2023-05-20T06:42:03;6.23;;;4.70;;
17422;SDS011;8829;47.932;7.810;2023-05-20T06:44:30;9.07;;;4.90;;
17422;SDS011;8829;47.932;7.810;2023-05-20T06:46:56;6.83;;;4.70;;
17422;SDS011;8829;47.932;7.810;2023-05-20T06:49:24;7.27;;;4.20;;
17422;SDS011;8829;47.932;7.810;2023-05-20T06:51:52;5.87;;;4.10;;
17422;SDS011;8829;47.932;7.810;2023-05-20T06:54:19;5.93;;;4.53;;
17422;SDS011;8829;47.932;7.810;2023-05-20T06:56:45;5.30;;;4.67;;
17422;SDS011;8829;47.932;7.810;2023-05-20T06:59:12;4.37;;;3.97;;
17422;SDS011;8829;47.932;7.810;2023-05-20T07:01:39;4.57;;;3.77;;
17422;SDS011;8829;47.932;7.810;2023-05-20T07:04:06;6.57;;;4.83;;
17422;SDS011;8829;47.932;7.810;2023-05-20T07:06:34;5.27;;;4.70;;
17422;SDS011;8829;47.932;7.810;2023-05-20T07:09:01;8.90;;;5.20;;
17422;SDS011;8829;47.932;7.810;2023-05-20T07:11:27;6.30;;;4.57;;
17422;SDS011;8829;47.932;7.810;2023-05-20T07:13:54;4.80;;;4.10;;
17422;SDS011;8829;47.932;7.810;2023-05-20T07:16:21;7.07;;;5.00;;
17422;SDS011;8829;47.932;7.810;2023-05-20T07:18:48;5.83;;;4.67;;
17422;SDS011;8829;47.932;7.810;2023-05-20T07:21:14;4.33;;;3.93;;
17422;SDS011;8829;47.932;7.810;2023-05-20T07:23:43;5.27;;;3.73;;
17422;SDS011;8829;47.932;7.810;2023-05-20T07:26:10;5.63;;;3.50;;
17422;SDS011;8829;47.932;7.810;2023-05-20T07:28:37;4.17;;;3.77;;
17422;SDS011;8829;47.932;7.810;2023-05-20T07:31:04;3.77;;;3.47;;
17422;SDS011;8829;47.932;7.810;2023-05-20T07:33:31;4.20;;;3.30;;
17422;SDS011;8829;47.932;7.810;2023-05-20T07:35:57;3.87;;;3.40;;
17422;SDS011;8829;47.932;7.810;2023-05-20T07:38:24;3.37;;;3.17;;
17422;SDS011;8829;47.932;7.810;2023-05-20T07:40:52;6.90;;;3.60;;
17422;SDS011;8829;47.932;7.810;2023-05-20T07:43:19;5.40;;;3.50;;
17422;SDS011;8829;47.932;7.810;2023-05-20T07:45:45;5.27;;;3.30;;
17422;SDS011;8829;47.932;7.810;2023-05-20T07:48:12;6.53;;;3.43;;
17422;SDS011;8829;47.932;7.810;2023-05-20T07:50:39;3.60;;;3.30;;
17422;SDS011;8829;47.932;7.810;2023-05-20T07:53:06;4.43;;;3.60;;
17422;SDS011;8829;47.932;7.810;2023-05-20T07:55:32;4.63;;;4.00;;
17422;SDS011;8829;47.932;7.810;2023-05-20T07:58:01;3.53;;;3.23;;
17422;SDS011;8829;47.932;7.810;2023-05-20T08:00:28;5.73;;;3.40;;
17422;SDS011;8829;47.932;7.810;2023-05-20T08:02:55;4.17;;;3.77;;
17422;SDS011;8829;47.932;7.810;2023-05-20T08:05:22;4.73;;;4.33;;
17422;SDS011;8829;47.932;7.810;2023-05-20T08:07:49;4.57;;;3.63;;
17422;SDS011;8829;47.932;7.810;2023-05-20T08:10:15;3.50;;;3.20;;
17422;SDS011;8829;47.932;7.810;2023-05-20T08:12:42;5.03;;;3.63;;
17422;SDS011;8829;47.932;7.810;2023-05-20T08:15:11;3.60;;;3.30;;
17422;SDS011;8829;47.932;7.810;2023-05-20T08:17:37;3.60;;;3.30;;
17422;SDS011;8829;47.932;7.810;2023-05-20T08:20:04;4.23;;;3.83;;
17422;SDS011;8829;47.932;7.810;2023-05-20T08:22:33;4.43;;;4.03;;
17422;SDS011;8829;47.932;7.810;2023-05-20T08:25:01;5.00;;;3.90;;
17422;SDS011;8829;47.932;7.810;2023-05-20T08:27:28;4.37;;;3.97;;
17422;SDS011;8829;47.932;7.810;2023-05-20T08:29:55;6.53;;;3.43;;
17422;SDS011;8829;47.932;7.810;2023-05-20T08:32:23;4.67;;;3.80;;
17422;SDS011;8829;47.932;7.810;2023-05-20T08:34:49;3.47;;;3.07;;
17422;SDS011;8829;47.932;7.810;2023-05-20T08:37:16;3.87;;;3.57;;
17422;SDS011;8829;47.932;7.810;2023-05-20T08:39:43;4.43;;;4.03;;
17422;SDS011;8829;47.932;7.810;2023-05-20T08:42:12;4.50;;;3.77;;
17422;SDS011;8829;47.932;7.810;2023-05-20T08:44:39;4.20;;;3.40;;
17422;SDS011;8829;47.932;7.810;2023-05-20T08:47:06;3.70;;;3.40;;
17422;SDS011;8829;47.932;7.810;2023-05-20T08:49:35;5.80;;;3.63;;
17422;SDS011;8829;47.932;7.810;2023-05-20T08:52:02;4.93;;;3.50;;
17422;SDS011;8829;47.932;7.810;2023-05-20T08:54:32;4.03;;;3.63;;
17422;SDS011;8829;47.932;7.810;2023-05-20T08:57:08;4.23;;;3.87;;
17422;SDS011;8829;47.932;7.810;2023-05-20T08:59:38;5.50;;;4.13;;
17422;SDS011;8829;47.932;7.810;2023-05-20T09:02:07;4.30;;;4.00;;
17422;SDS011;8829;47.932;7.810;2023-05-20T09:04:36;4.60;;;4.20;;
17422;SDS011;8829;47.932;7.810;2023-05-20T09:07:03;4.73;;;4.13;;
17422;SDS011;8829;47.932;7.810;2023-05-20T09:09:30;4.53;;;4.13;;
17422;SDS011;8829;47.932;7.810;2023-05-20T09:11:59;5.07;;;4.53;;
17422;SDS011;8829;47.932;7.810;2023-05-20T09:14:26;4.80;;;4.40;;
17422;SDS011;8829;47.932;7.810;2023-05-20T09:16:53;5.03;;;4.43;;
17422;SDS011;8829;47.932;7.810;2023-05-20T09:19:20;4.60;;;4.23;;
17422;SDS011;8829;47.932;7.810;2023-05-20T09:21:49;5.00;;;4.40;;
17422;SDS011;8829;47.932;7.810;2023-05-20T09:24:19;4.20;;;3.87;;
17422;SDS011;8829;47.932;7.810;2023-05-20T09:26:48;4.80;;;4.30;;
17422;SDS011;8829;47.932;7.810;2023-05-20T09:29:14;4.67;;;3.93;;
17422;SDS011;8829;47.932;7.810;2023-05-20T09:31:41;4.30;;;3.90;;
17422;SDS011;8829;47.932;7.810;2023-05-20T09:34:08;6.00;;;4.07;;
17422;SDS011;8829;47.932;7.810;2023-05-20T09:36:36;3.90;;;3.60;;
17422;SDS011;8829;47.932;7.810;2023-05-20T09:39:07;5.90;;;4.10;;
17422;SDS011;8829;47.932;7.810;2023-05-20T09:41:38;4.30;;;3.67;;
17422;SDS011;8829;47.932;7.810;2023-05-20T09:44:10;5.47;;;3.53;;
17422;SDS011;8829;47.932;7.810;2023-05-20T09:46:37;4.03;;;3.60;;
17422;SDS011;8829;47.932;7.810;2023-05-20T09:49:06;4.90;;;3.67;;
17422;SDS011;8829;47.932;7.810;2023-05-20T09:51:34;3.93;;;3.60;;
17422;SDS011;8829;47.932;7.810;2023-05-20T09:54:00;4.30;;;3.73;;
17422;SDS011;8829;47.932;7.810;2023-05-20T09:56:30;3.90;;;3.60;;
17422;SDS011;8829;47.932;7.810;2023-05-20T09:58:59;3.63;;;3.33;;
17422;SDS011;8829;47.932;7.810;2023-05-20T10:01:27;4.17;;;3.67;;
17422;SDS011;8829;47.932;7.810;2023-05-20T10:03:54;3.80;;;3.50;;
17422;SDS011;8829;47.932;7.810;2023-05-20T10:06:27;3.40;;;3.13;;
17422;SDS011;8829;47.932;7.810;2023-05-20T10:09:29;3.40;;;3.20;;
17422;SDS011;8829;47.932;7.810;2023-05-20T10:12:06;4.30;;;3.27;;
17422;SDS011;8829;47.932;7.810;2023-05-20T10:14:45;3.73;;;3.43;;
17422;SDS011;8829;47.932;7.810;2023-05-20T10:17:20;4.03;;;3.73;;
17422;SDS011;8829;47.932;7.810;2023-05-20T10:19:56;3.50;;;3.20;;
17422;SDS011;8829;47.932;7.810;2023-05-20T10:22:27;4.63;;;3.50;;
17422;SDS011;8829;47.932;7.810;2023-05-20T10:24:57;3.60;;;3.30;;
17422;SDS011;8829;47.932;7.810;2023-05-20T10:27:26;5.23;;;3.70;;
17422;SDS011;8829;47.932;7.810;2023-05-20T10:29:54;3.80;;;3.40;;
17422;SDS011;8829;47.932;7.810;2023-05-20T10:32:24;3.80;;;3.50;;
17422;SDS011;8829;47.932;7.810;2023-05-20T10:34:51;5.80;;;3.30;;
17422;SDS011;8829;47.932;7.810;2023-05-20T10:37:23;3.67;;;3.20;;
17422;SDS011;8829;47.932;7.810;2023-05-20T10:39:51;6.73;;;3.93;;
17422;SDS011;8829;47.932;7.810;2023-05-20T10:42:30;3.60;;;3.27;;
17422;SDS011;8829;47.932;7.810;2023-05-20T10:44:57;3.77;;;3.47;;
17422;SDS011;8829;47.932;7.810;2023-05-20T10:47:23;3.77;;;3.47;;
17422;SDS011;8829;47.932;7.810;2023-05-20T10:49:50;3.47;;;3.17;;
17422;SDS011;8829;47.932;7.810;2023-05-20T10:52:17;4.80;;;3.60;;
17422;SDS011;8829;47.932;7.810;2023-05-20T10:54:44;4.37;;;3.37;;
17422;SDS011;8829;47.932;7.810;2023-05-20T10:57:12;4.17;;;3.87;;
17422;SDS011;8829;47.932;7.810;2023-05-20T10:59:41;4.17;;;3.53;;
17422;SDS011;8829;47.932;7.810;2023-05-20T11:02:08;6.07;;;3.27;;
17422;SDS011;8829;47.932;7.810;2023-05-20T11:04:37;4.17;;;3.60;;
17422;SDS011;8829;47.932;7.810;2023-05-20T11:07:04;3.90;;;3.60;;
17422;SDS011;8829;47.932;7.810;2023-05-20T11:09:31;7.73;;;3.43;;
17422;SDS011;8829;47.932;7.810;2023-05-20T11:11:58;3.67;;;3.40;;
17422;SDS011;8829;47.932;7.810;2023-05-20T11:14:26;4.60;;;3.47;;
17422;SDS011;8829;47.932;7.810;2023-05-20T11:16:56;3.83;;;3.47;;
17422;SDS011;8829;47.932;7.810;2023-05-20T11:19:23;6.07;;;4.17;;
17422;SDS011;8829;47.932;7.810;2023-05-20T11:21:50;4.60;;;3.77;;
17422;SDS011;8829;47.932;7.810;2023-05-20T11:24:22;4.00;;;3.70;;
17422;SDS011;8829;47.932;7.810;2023-05-20T11:26:50;3.13;;;2.93;;
17422;SDS011;8829;47.932;7.810;2023-05-20T11:29:17;3.67;;;3.37;;
17422;SDS011;8829;47.932;7.810;2023-05-20T11:31:46;3.43;;;3.23;;
17422;SDS011;8829;47.932;7.810;2023-05-20T11:34:14;4.00;;;3.70;;
17422;SDS011;8829;47.932;7.810;2023-05-20T11:36:42;3.70;;;3.40;;
17422;SDS011;8829;47.932;7.810;2023-05-20T11:39:09;3.40;;;3.20;;
17422;SDS011;8829;47.932;7.810;2023-05-20T11:41:37;3.50;;;3.10;;
17422;SDS011;8829;47.932;7.810;2023-05-20T11:44:06;4.27;;;3.67;;
17422;SDS011;8829;47.932;7.810;2023-05-20T11:46:40;3.13;;;2.93;;
17422;SDS011;8829;47.932;7.810;2023-05-20T11:49:07;3.57;;;3.20;;
17422;SDS011;8829;47.932;7.810;2023-05-20T11:51:36;3.40;;;3.10;;
17422;SDS011;8829;47.932;7.810;2023-05-20T11:54:04;4.83;;;3.70;;
17422;SDS011;8829;47.932;7.810;2023-05-20T11:56:32;3.47;;;3.27;;
17422;SDS011;8829;47.932;7.810;2023-05-20T11:59:00;3.70;;;3.40;;
17422;SDS011;8829;47.932;7.810;2023-05-20T12:01:28;6.57;;;3.17;;
17422;SDS011;8829;47.932;7.810;2023-05-20T12:03:57;3.67;;;3.37;;
17422;SDS011;8829;47.932;7.810;2023-05-20T12:06:24;4.63;;;3.30;;
17422;SDS011;8829;47.932;7.810;2023-05-20T12:08:52;3.13;;;2.93;;
17422;SDS011;8829;47.932;7.810;2023-05-20T12:11:19;4.17;;;3.10;;
17422;SDS011;8829;47.932;7.810;2023-05-20T12:13:46;3.73;;;3.43;;
17422;SDS011;8829;47.932;7.810;2023-05-20T12:16:13;3.93;;;3.63;;
17422;SDS011;8829;47.932;7.810;2023-05-20T12:18:40;3.23;;;2.93;;
17422;SDS011;8829;47.932;7.810;2023-05-20T12:21:06;3.53;;;3.27;;
17422;SDS011;8829;47.932;7.810;2023-05-20T12:23:34;3.90;;;3.50;;
17422;SDS011;8829;47.932;7.810;2023-05-20T12:26:02;3.67;;;3.33;;
17422;SDS011;8829;47.932;7.810;2023-05-20T12:28:29;4.97;;;3.23;;
17422;SDS011;8829;47.932;7.810;2023-05-20T12:30:57;4.00;;;3.60;;
17422;SDS011;8829;47.932;7.810;2023-05-20T12:33:24;3.87;;;3.40;;
17422;SDS011;8829;47.932;7.810;2023-05-20T12:35:51;3.43;;;3.10;;
17422;SDS011;8829;47.932;7.810;2023-05-20T12:38:20;3.40;;;3.13;;
17422;SDS011;8829;47.932;7.810;2023-05-20T12:40:46;4.03;;;3.00;;
17422;SDS011;8829;47.932;7.810;2023-05-20T12:43:14;4.03;;;3.57;;
17422;SDS011;8829;47.932;7.810;2023-05-20T12:45:41;3.60;;;3.30;;
17422;SDS011;8829;47.932;7.810;2023-05-20T12:48:08;3.27;;;2.97;;
17422;SDS011;8829;47.932;7.810;2023-05-20T12:50:34;3.83;;;3.53;;
17422;SDS011;8829;47.932;7.810;2023-05-20T12:53:01;3.10;;;2.83;;
17422;SDS011;8829;47.932;7.810;2023-05-20T12:55:28;2.80;;;2.63;;
17422;SDS011;8829;47.932;7.810;2023-05-20T12:57:54;3.17;;;2.87;;
17422;SDS011;8829;47.932;7.810;2023-05-20T13:00:22;4.27;;;3.40;;
17422;SDS011;8829;47.932;7.810;2023-05-20T13:02:49;3.10;;;2.70;;
17422;SDS011;8829;47.932;7.810;2023-05-20T13:05:17;3.00;;;2.80;;
17422;SDS011;8829;47.932;7.810;2023-05-20T13:07:44;2.70;;;2.50;;
17422;SDS011;8829;47.932;7.810;2023-05-20T13:10:10;2.40;;;2.30;;
17422;SDS011;8829;47.932;7.810;2023-05-20T13:12:37;2.70;;;2.60;;
17422;SDS011;8829;47.932;7.810;2023-05-20T13:15:10;3.77;;;2.70;;
17422;SDS011;8829;47.932;7.810;2023-05-20T13:17:38;2.80;;;2.60;;
17422;SDS011;8829;47.932;7.810;2023-05-20T13:20:05;3.43;;;3.10;;
17422;SDS011;8829;47.932;7.810;2023-05-20T13:22:33;3.20;;;2.73;;
17422;SDS011;8829;47.932;7.810;2023-05-20T13:25:00;3.43;;;3.17;;
17422;SDS011;8829;47.932;7.810;2023-05-20T13:27:26;2.93;;;2.63;;
17422;SDS011;8829;47.932;7.810;2023-05-20T13:29:53;3.47;;;2.70;;
17422;SDS011;8829;47.932;7.810;2023-05-20T13:32:20;5.07;;;3.07;;
17422;SDS011;8829;47.932;7.810;2023-05-20T13:34:48;4.77;;;4.10;;
17422;SDS011;8829;47.932;7.810;2023-05-20T13:37:14;3.27;;;3.07;;
17422;SDS011;8829;47.932;7.810;2023-05-20T13:39:41;5.47;;;3.43;;
17422;SDS011;8829;47.932;7.810;2023-05-20T13:42:08;3.30;;;3.10;;
17422;SDS011;8829;47.932;7.810;2023-05-20T13:44:34;5.77;;;3.20;;
17422;SDS011;8829;47.932;7.810;2023-05-20T13:47:01;3.50;;;3.20;;
17422;SDS011;8829;47.932;7.810;2023-05-20T13:49:28;3.10;;;2.87;;
17422;SDS011;8829;47.932;7.810;2023-05-20T13:51:56;3.13;;;2.87;;
17422;SDS011;8829;47.932;7.810;2023-05-20T13:54:23;3.77;;;3.47;;
17422;SDS011;8829;47.932;7.810;2023-05-20T13:56:51;3.17;;;2.87;;
17422;SDS011;8829;47.932;7.810;2023-05-20T13:59:18;3.40;;;2.70;;
17422;SDS011;8829;47.932;7.810;2023-05-20T14:01:45;4.50;;;3.57;;
17422;SDS011;8829;47.932;7.810;2023-05-20T14:04:11;2.73;;;2.47;;
17422;SDS011;8829;47.932;7.810;2023-05-20T14:06:39;2.83;;;2.63;;
17422;SDS011;8829;47.932;7.810;2023-05-20T14:09:07;3.30;;;3.00;;
17422;SDS011;8829;47.932;7.810;2023-05-20T14:11:34;4.03;;;3.73;;
17422;SDS011;8829;47.932;7.810;2023-05-20T14:14:01;3.07;;;2.63;;
17422;SDS011;8829;47.932;7.810;2023-05-20T14:16:27;3.47;;;2.50;;
17422;SDS011;8829;47.932;7.810;2023-05-20T14:18:54;3.20;;;2.90;;
17422;SDS011;8829;47.932;7.810;2023-05-20T14:21:21;2.30;;;2.20;;
17422;SDS011;8829;47.932;7.810;2023-05-20T14:23:47;2.93;;;2.40;;
17422;SDS011;8829;47.932;7.810;2023-05-20T14:26:15;3.47;;;2.50;;
17422;SDS011;8829;47.932;7.810;2023-05-20T14:28:42;3.37;;;2.60;;
17422;SDS011;8829;47.932;7.810;2023-05-20T14:31:09;2.60;;;2.47;;
17422;SDS011;8829;47.932;7.810;2023-05-20T14:33:36;2.17;;;2.07;;
17422;SDS011;8829;47.932;7.810;2023-05-20T14:36:02;3.93;;;2.60;;
17422;SDS011;8829;47.932;7.810;2023-05-20T14:38:30;2.50;;;2.30;;
17422;SDS011;8829;47.932;7.810;2023-05-20T14:40:56;2.83;;;2.63;;
17422;SDS011;8829;47.932;7.810;2023-05-20T14:43:24;2.77;;;2.50;;
17422;SDS011;8829;47.932;7.810;2023-05-20T14:45:51;3.20;;;2.80;;
17422;SDS011;8829;47.932;7.810;2023-05-20T14:48:19;2.90;;;2.70;;
17422;SDS011;8829;47.932;7.810;2023-05-20T14:50:45;3.40;;;2.30;;
17422;SDS011;8829;47.932;7.810;2023-05-20T14:53:12;2.80;;;2.50;;
17422;SDS011;8829;47.932;7.810;2023-05-20T14:55:39;2.70;;;2.50;;
17422;SDS011;8829;47.932;7.810;2023-05-20T14:58:06;2.77;;;2.57;;
17422;SDS011;8829;47.932;7.810;2023-05-20T15:00:34;2.53;;;2.43;;
17422;SDS011;8829;47.932;7.810;2023-05-20T15:03:00;2.57;;;2.47;;